createdAt,value
2022-11-30T00:02:08.389Z,100.00
2022-11-30T00:04:36.167Z,100.00
2022-11-30T00:07:05.124Z,100.00
2022-11-30T00:09:32.706Z,100.00
2022-11-30T00:12:00.228Z,100.00
2022-11-30T00:14:27.728Z,100.00
2022-11-30T00:16:55.312Z,100.00
2022-11-30T00:19:22.869Z,100.00
2022-11-30T00:21:50.432Z,100.00
2022-11-30T00:24:19.494Z,100.00
2022-11-30T00:26:48.267Z,100.00
2022-11-30T00:29:15.794Z,100.00
2022-11-30T00:31:43.270Z,100.00
2022-11-30T00:34:10.766Z,100.00
2022-11-30T00:36:39.191Z,100.00
2022-11-30T00:39:06.793Z,100.00
2022-11-30T00:41:35.736Z,100.00
2022-11-30T00:44:03.287Z,100.00
2022-11-30T00:46:30.845Z,100.00
2022-11-30T00:48:58.363Z,100.00
2022-11-30T00:51:26.147Z,100.00
2022-11-30T00:53:53.659Z,100.00
2022-11-30T00:56:21.313Z,100.00
2022-11-30T00:58:50.227Z,100.00
2022-11-30T01:01:17.841Z,100.00
2022-11-30T01:03:45.727Z,100.00
2022-11-30T01:06:13.230Z,100.00
2022-11-30T01:08:40.779Z,100.00
2022-11-30T01:11:10.483Z,100.00
2022-11-30T01:13:38.044Z,100.00
2022-11-30T01:16:11.787Z,100.00
2022-11-30T01:18:39.711Z,100.00
2022-11-30T01:21:08.620Z,100.00
2022-11-30T01:23:36.242Z,100.00
2022-11-30T01:26:03.908Z,100.00
2022-11-30T01:28:31.552Z,100.00
2022-11-30T01:30:59.794Z,100.00
2022-11-30T01:33:28.950Z,100.00
2022-11-30T01:36:01.177Z,100.00
2022-11-30T01:38:31.864Z,100.00
2022-11-30T01:40:59.339Z,100.00
2022-11-30T01:43:38.739Z,100.00
2022-11-30T01:46:07.202Z,100.00
2022-11-30T01:48:36.223Z,100.00
2022-11-30T01:51:03.780Z,100.00
2022-11-30T01:53:31.347Z,100.00
2022-11-30T01:55:58.841Z,100.00
2022-11-30T01:58:28.832Z,100.00
2022-11-30T02:00:56.537Z,100.00
2022-11-30T02:03:29.902Z,100.00
2022-11-30T02:05:58.866Z,100.00
2022-11-30T02:08:26.890Z,100.00
2022-11-30T02:10:56.684Z,100.00
2022-11-30T02:13:33.186Z,100.00
2022-11-30T02:16:07.756Z,100.00
2022-11-30T02:18:44.633Z,100.00
2022-11-30T02:21:17.271Z,100.00
2022-11-30T02:24:04.917Z,100.00
2022-11-30T02:26:45.692Z,100.00
2022-11-30T02:29:17.889Z,100.00
2022-11-30T02:31:50.376Z,100.00
2022-11-30T02:34:19.176Z,100.00
2022-11-30T02:36:47.328Z,100.00
2022-11-30T02:39:14.897Z,100.00
2022-11-30T02:41:42.479Z,100.00
2022-11-30T02:44:11.636Z,100.00
2022-11-30T02:46:52.987Z,100.00
2022-11-30T02:49:25.027Z,100.00
2022-11-30T02:51:53.605Z,100.00
2022-11-30T02:54:21.225Z,100.00
2022-11-30T02:56:48.908Z,100.00
2022-11-30T02:59:16.507Z,100.00
2022-11-30T03:01:45.529Z,100.00
2022-11-30T03:04:13.127Z,100.00
2022-11-30T03:06:40.627Z,100.00
2022-11-30T03:09:08.829Z,100.00
2022-11-30T03:11:36.950Z,100.00
2022-11-30T03:14:04.546Z,100.00
2022-11-30T03:16:32.137Z,100.00
2022-11-30T03:19:01.012Z,100.00
2022-11-30T03:21:29.318Z,100.00
2022-11-30T03:23:56.811Z,100.00
2022-11-30T03:26:24.301Z,100.00
2022-11-30T03:28:51.846Z,100.00
2022-11-30T03:31:19.429Z,100.00
2022-11-30T03:33:47.207Z,100.00
2022-11-30T03:36:16.187Z,100.00
2022-11-30T03:38:43.737Z,100.00
2022-11-30T03:41:13.997Z,100.00
2022-11-30T03:43:41.647Z,100.00
2022-11-30T03:46:09.234Z,100.00
2022-11-30T03:48:37.391Z,100.00
2022-11-30T03:51:05.256Z,100.00
2022-11-30T03:53:34.619Z,100.00
2022-11-30T03:56:03.408Z,100.00
2022-11-30T03:58:30.966Z,100.00
2022-11-30T04:01:02.591Z,100.00
2022-11-30T04:03:30.620Z,100.00
2022-11-30T04:05:58.455Z,100.00
2022-11-30T04:08:26.721Z,100.00
2022-11-30T04:10:57.280Z,100.00
2022-11-30T04:13:25.818Z,100.00
2022-11-30T04:15:54.690Z,100.00
2022-11-30T04:18:23.899Z,100.00
2022-11-30T04:20:52.126Z,100.00
2022-11-30T04:23:19.918Z,100.00
2022-11-30T04:25:47.988Z,100.00
2022-11-30T04:28:17.821Z,100.00
2022-11-30T04:30:46.152Z,100.00
2022-11-30T04:33:14.139Z,100.00
2022-11-30T04:35:42.397Z,100.00
2022-11-30T04:38:10.154Z,100.00
2022-11-30T04:40:40.330Z,100.00
2022-11-30T04:43:07.928Z,100.00
2022-11-30T04:45:36.980Z,100.00
2022-11-30T04:48:06.863Z,100.00
2022-11-30T04:50:34.476Z,100.00
2022-11-30T04:53:02.040Z,100.00
2022-11-30T04:55:29.711Z,100.00
2022-11-30T04:57:57.223Z,100.00
2022-11-30T05:00:24.845Z,100.00
2022-11-30T05:02:53.739Z,100.00
2022-11-30T05:05:21.591Z,100.00
2022-11-30T05:07:50.506Z,100.00
2022-11-30T05:10:18.296Z,100.00
2022-11-30T05:12:46.010Z,100.00
2022-11-30T05:15:13.531Z,100.00
2022-11-30T05:17:41.047Z,100.00
2022-11-30T05:20:10.863Z,100.00
2022-11-30T05:22:38.365Z,100.00
2022-11-30T05:25:06.487Z,100.00
2022-11-30T05:27:35.222Z,100.00
2022-11-30T05:30:03.142Z,100.00
2022-11-30T05:32:30.652Z,100.00
2022-11-30T05:34:58.720Z,100.00
2022-11-30T05:37:27.804Z,100.00
2022-11-30T05:39:55.336Z,100.00
2022-11-30T05:42:22.896Z,100.00
2022-11-30T05:44:50.697Z,100.00
2022-11-30T05:47:18.520Z,100.00
2022-11-30T05:49:46.168Z,100.00
2022-11-30T05:52:13.667Z,100.00
2022-11-30T05:54:42.523Z,100.00
2022-11-30T05:57:10.051Z,100.00
2022-11-30T05:59:37.548Z,100.00
2022-11-30T06:02:05.151Z,100.00
2022-11-30T06:04:34.267Z,100.00
2022-11-30T06:07:06.232Z,100.00
2022-11-30T06:10:39.794Z,100.00
2022-11-30T06:13:09.714Z,100.00
2022-11-30T06:15:37.493Z,100.00
2022-11-30T06:18:05.589Z,100.00
2022-11-30T06:20:33.415Z,100.00
2022-11-30T06:23:01.067Z,100.00
2022-11-30T06:25:28.687Z,100.00
2022-11-30T06:27:56.419Z,100.00
2022-11-30T06:30:25.412Z,100.00
2022-11-30T06:32:53.364Z,100.00
2022-11-30T06:35:21.097Z,100.00
2022-11-30T06:37:48.686Z,100.00
2022-11-30T06:40:17.039Z,100.00
2022-11-30T06:42:44.560Z,100.00
2022-11-30T06:45:12.406Z,100.00
2022-11-30T06:47:41.575Z,100.00
2022-11-30T06:50:09.814Z,100.00
2022-11-30T06:52:37.454Z,100.00
2022-11-30T06:55:05.597Z,100.00
2022-11-30T06:57:33.117Z,100.00
2022-11-30T07:00:00.631Z,100.00
2022-11-30T07:02:28.212Z,100.00
2022-11-30T07:04:57.102Z,100.00
2022-11-30T07:07:24.901Z,100.00
2022-11-30T07:09:52.461Z,100.00
2022-11-30T07:12:20.093Z,100.00
2022-11-30T07:14:53.243Z,100.00
2022-11-30T07:17:20.911Z,100.00
2022-11-30T07:19:48.447Z,100.00
2022-11-30T07:22:17.371Z,100.00
2022-11-30T07:25:02.700Z,100.00
2022-11-30T07:27:30.234Z,100.00
2022-11-30T07:29:57.731Z,100.00
2022-11-30T07:32:25.257Z,100.00
2022-11-30T07:34:52.748Z,100.00
2022-11-30T07:37:21.618Z,100.00
2022-11-30T07:39:49.132Z,100.00
2022-11-30T07:42:17.620Z,100.00
2022-11-30T07:44:45.402Z,100.00
2022-11-30T07:47:13.294Z,100.00
2022-11-30T07:49:41.979Z,100.00
2022-11-30T07:52:09.585Z,100.00
2022-11-30T07:54:38.529Z,100.00
2022-11-30T07:57:06.570Z,100.00
2022-11-30T07:59:34.233Z,100.00
2022-11-30T08:02:02.144Z,100.00
2022-11-30T08:04:30.059Z,100.00
2022-11-30T08:06:57.743Z,100.00
2022-11-30T08:09:25.280Z,100.00
2022-11-30T08:11:56.851Z,100.00
2022-11-30T08:14:24.342Z,100.00
2022-11-30T08:16:51.907Z,100.00
2022-11-30T08:19:19.784Z,100.00
2022-11-30T08:21:47.320Z,100.00
2022-11-30T08:24:15.925Z,100.00
2022-11-30T08:26:43.490Z,100.00
2022-11-30T08:29:12.512Z,100.00
2022-11-30T08:31:40.207Z,100.00
2022-11-30T08:34:10.210Z,100.00
2022-11-30T08:36:38.229Z,100.00
2022-11-30T08:39:07.471Z,100.00
2022-11-30T08:41:36.132Z,100.00
2022-11-30T08:44:04.115Z,100.00
2022-11-30T08:49:23.515Z,100.00
2022-11-30T08:54:42.607Z,100.00
2022-11-30T08:57:10.281Z,100.00
2022-11-30T08:59:37.938Z,100.00
2022-11-30T09:02:07.528Z,99.99
2022-11-30T09:04:35.073Z,99.83
2022-11-30T09:07:03.693Z,99.73
2022-11-30T09:09:31.275Z,100.00
2022-11-30T09:11:58.801Z,99.69
2022-11-30T09:14:26.365Z,99.71
2022-11-30T09:16:54.389Z,98.61
2022-11-30T09:19:23.325Z,98.35
2022-11-30T09:21:52.156Z,97.41
2022-11-30T09:24:23.189Z,96.24
2022-11-30T09:26:50.945Z,96.08
2022-11-30T09:29:18.535Z,95.36
2022-11-30T09:31:46.072Z,95.49
2022-11-30T09:34:13.890Z,95.18
2022-11-30T09:36:42.811Z,94.19
2022-11-30T09:39:10.891Z,93.81
2022-11-30T09:42:02.998Z,93.89
2022-11-30T09:44:36.558Z,94.10
2022-11-30T09:47:12.249Z,94.77
2022-11-30T09:49:41.939Z,95.14
2022-11-30T09:52:14.802Z,95.46
2022-11-30T09:54:44.892Z,95.99
2022-11-30T09:57:22.048Z,96.05
2022-11-30T09:59:55.440Z,95.67
2022-11-30T10:02:26.534Z,95.24
2022-11-30T10:04:54.184Z,94.00
2022-11-30T10:07:36.243Z,93.24
2022-11-30T10:13:01.295Z,92.68
2022-11-30T10:15:36.260Z,93.49
2022-11-30T10:18:11.940Z,93.01
2022-11-30T10:20:51.157Z,92.70
2022-11-30T10:23:30.775Z,92.47
2022-11-30T10:25:59.142Z,92.39
2022-11-30T10:28:52.379Z,92.88
2022-11-30T10:31:21.766Z,92.84
2022-11-30T10:33:51.863Z,92.54
2022-11-30T10:36:26.741Z,92.15
2022-11-30T10:39:00.719Z,92.93
2022-11-30T10:41:32.060Z,93.08
2022-11-30T10:44:01.865Z,93.77
2022-11-30T10:46:31.739Z,93.84
2022-11-30T10:49:02.659Z,92.96
2022-11-30T10:51:30.425Z,93.63
2022-11-30T10:54:00.229Z,94.22
2022-11-30T10:56:27.721Z,94.76
2022-11-30T10:58:59.336Z,95.10
2022-11-30T11:01:34.964Z,95.11
2022-11-30T11:04:16.085Z,95.34
2022-11-30T11:06:47.977Z,95.84
2022-11-30T11:09:33.624Z,95.97
2022-11-30T11:12:03.242Z,96.35
2022-11-30T11:14:34.992Z,96.14
2022-11-30T11:17:06.847Z,96.30
2022-11-30T11:19:37.629Z,96.26
2022-11-30T11:22:07.567Z,96.06
2022-11-30T11:24:36.730Z,95.77
2022-11-30T11:27:04.482Z,95.83
2022-11-30T11:29:34.176Z,95.77
2022-11-30T11:32:14.545Z,96.12
2022-11-30T11:34:46.560Z,95.31
2022-11-30T11:37:23.542Z,95.38
2022-11-30T11:40:00.370Z,95.35
2022-11-30T11:42:29.554Z,95.64
2022-11-30T11:44:59.161Z,94.95
2022-11-30T11:47:28.266Z,94.27
2022-11-30T11:50:50.266Z,94.48
2022-11-30T11:53:22.707Z,95.01
2022-11-30T11:55:55.268Z,94.76
2022-11-30T11:58:34.017Z,94.26
2022-11-30T12:01:31.719Z,94.40
2022-11-30T12:04:00.297Z,94.80
2022-11-30T12:06:32.310Z,94.36
2022-11-30T12:09:04.341Z,94.91
2022-11-30T12:11:41.329Z,95.74
2022-11-30T12:14:12.406Z,95.59
2022-11-30T12:16:51.381Z,95.09
2022-11-30T12:19:21.793Z,95.39
2022-11-30T12:21:58.958Z,95.20
2022-11-30T12:24:45.432Z,95.02
2022-11-30T12:27:20.137Z,94.85
2022-11-30T12:29:55.622Z,94.96
2022-11-30T12:32:31.093Z,94.43
2022-11-30T12:35:09.268Z,95.15
2022-11-30T12:37:47.534Z,94.72
2022-11-30T12:40:24.264Z,94.50
2022-11-30T12:42:58.172Z,94.25
2022-11-30T12:45:28.906Z,94.08
2022-11-30T12:48:01.904Z,94.74
2022-11-30T12:50:45.600Z,94.75
2022-11-30T12:53:21.299Z,94.94
2022-11-30T12:55:56.209Z,95.47
2022-11-30T12:58:30.538Z,95.18
2022-11-30T13:01:08.103Z,95.20
2022-11-30T13:03:44.711Z,94.87
2022-11-30T13:06:14.648Z,95.17
2022-11-30T13:08:52.955Z,95.67
2022-11-30T13:11:23.851Z,95.42
2022-11-30T13:13:54.730Z,95.80
2022-11-30T13:16:24.597Z,95.61
2022-11-30T13:18:52.942Z,95.52
2022-11-30T13:21:24.462Z,95.05
2022-11-30T13:23:58.204Z,95.00
2022-11-30T13:26:29.696Z,95.07
2022-11-30T13:29:08.744Z,95.04
2022-11-30T13:31:40.504Z,94.94
2022-11-30T13:34:23.824Z,95.73
2022-11-30T13:36:51.459Z,95.72
2022-11-30T13:39:24.320Z,95.66
2022-11-30T13:42:09.842Z,95.42
2022-11-30T13:44:39.802Z,95.43
2022-11-30T13:47:17.236Z,95.40
2022-11-30T13:49:45.051Z,95.78
2022-11-30T13:52:22.621Z,96.30
2022-11-30T13:54:53.840Z,96.48
2022-11-30T13:58:01.228Z,95.96
2022-11-30T14:01:02.154Z,95.82
2022-11-30T14:03:32.420Z,95.44
2022-11-30T14:06:00.576Z,95.95
2022-11-30T14:08:33.872Z,95.83
2022-11-30T14:11:38.842Z,96.03
2022-11-30T14:14:45.079Z,96.32
2022-11-30T14:17:21.965Z,96.11
2022-11-30T14:19:54.307Z,94.89
2022-11-30T14:22:22.235Z,95.08
2022-11-30T14:24:50.452Z,94.71
2022-11-30T14:27:20.092Z,95.07
2022-11-30T14:29:53.079Z,95.06
2022-11-30T14:32:27.180Z,95.50
2022-11-30T14:35:03.381Z,95.17
2022-11-30T14:37:33.699Z,95.29
2022-11-30T14:40:03.298Z,96.00
2022-11-30T14:42:32.552Z,96.15
2022-11-30T14:45:00.258Z,95.76
2022-11-30T14:47:29.296Z,95.50
2022-11-30T14:50:01.939Z,95.56
2022-11-30T14:52:58.980Z,95.86
2022-11-30T14:55:31.137Z,95.68
2022-11-30T14:58:08.130Z,95.99
2022-11-30T15:00:39.518Z,95.77
2022-11-30T15:03:18.249Z,95.39
2022-11-30T15:05:47.294Z,94.82
2022-11-30T15:08:16.332Z,93.50
2022-11-30T15:10:44.224Z,94.47
2022-11-30T15:13:14.118Z,93.89
2022-11-30T15:15:51.227Z,93.94
2022-11-30T15:18:20.010Z,94.20
2022-11-30T15:20:54.017Z,94.45
2022-11-30T15:23:21.631Z,94.91
2022-11-30T15:25:51.364Z,94.90
2022-11-30T15:28:22.548Z,95.16
2022-11-30T15:30:52.817Z,95.46
2022-11-30T15:33:21.619Z,95.44
2022-11-30T15:38:40.045Z,94.68
2022-11-30T15:41:13.983Z,95.08
2022-11-30T15:43:45.225Z,95.44
2022-11-30T15:46:28.739Z,95.59
2022-11-30T15:49:06.936Z,95.85
2022-11-30T15:51:39.850Z,95.78
2022-11-30T15:54:07.446Z,95.64
2022-11-30T15:56:35.100Z,96.26
2022-11-30T15:59:05.034Z,95.35
2022-11-30T16:01:34.059Z,95.66
2022-11-30T16:04:04.583Z,95.42
2022-11-30T16:06:35.314Z,95.35
2022-11-30T16:09:07.740Z,94.94
2022-11-30T16:11:36.553Z,94.11
2022-11-30T16:14:04.145Z,92.50
2022-11-30T16:16:33.161Z,91.64
2022-11-30T16:19:00.854Z,91.53
2022-11-30T16:21:28.516Z,90.97
2022-11-30T16:24:06.660Z,90.46
2022-11-30T16:27:15.864Z,90.90
2022-11-30T16:30:18.844Z,91.56
2022-11-30T16:33:04.162Z,91.91
2022-11-30T16:35:46.560Z,90.35
2022-11-30T16:38:31.399Z,91.07
2022-11-30T16:41:37.295Z,92.00
2022-11-30T16:44:28.458Z,91.54
2022-11-30T16:47:08.714Z,92.12
2022-11-30T16:49:37.708Z,92.32
2022-11-30T16:52:07.794Z,92.73
2022-11-30T16:54:36.686Z,93.14
2022-11-30T16:57:04.977Z,92.33
2022-11-30T17:01:33.184Z,92.34
2022-11-30T17:02:45.116Z,92.84
2022-11-30T17:05:13.521Z,93.11
2022-11-30T17:07:42.632Z,92.43
2022-11-30T17:10:11.133Z,92.72
2022-11-30T17:12:39.010Z,92.77
2022-11-30T17:15:12.671Z,92.19
2022-11-30T17:18:29.631Z,93.10
2022-11-30T17:20:55.525Z,92.07
2022-11-30T17:23:30.698Z,91.84
2022-11-30T17:26:32.010Z,91.99
2022-11-30T17:29:31.002Z,92.85
2022-11-30T17:32:47.403Z,91.31
2022-11-30T17:35:20.342Z,91.01
2022-11-30T17:37:51.089Z,90.80
2022-11-30T17:40:20.685Z,90.94
2022-11-30T17:42:55.228Z,90.28
2022-11-30T17:45:39.389Z,91.07
2022-11-30T17:48:23.081Z,91.13
2022-11-30T17:50:55.580Z,91.01
2022-11-30T17:53:54.578Z,91.25
2022-11-30T17:56:28.156Z,91.33
2022-11-30T17:58:56.170Z,91.26
2022-11-30T18:01:26.203Z,91.57
2022-11-30T18:04:16.387Z,91.39
2022-11-30T18:06:46.833Z,92.02
2022-11-30T18:09:24.879Z,92.40
2022-11-30T18:12:07.159Z,92.31
2022-11-30T18:14:48.731Z,92.24
2022-11-30T18:17:26.040Z,93.06
2022-11-30T18:19:59.105Z,92.73
2022-11-30T18:22:33.030Z,93.36
2022-11-30T18:25:02.529Z,93.87
2022-11-30T18:30:44.802Z,94.35
2022-11-30T18:33:38.936Z,94.90
2022-11-30T18:36:26.325Z,95.20
2022-11-30T18:39:22.282Z,95.42
2022-11-30T18:42:58.663Z,94.92
2022-11-30T18:46:23.576Z,94.76
2022-11-30T18:48:49.219Z,95.61
2022-11-30T18:51:36.415Z,95.16
2022-11-30T18:58:12.078Z,92.88
2022-11-30T19:09:09.572Z,93.92
2022-11-30T19:11:44.719Z,93.38
2022-11-30T19:14:46.078Z,93.33
2022-11-30T19:20:59.628Z,93.65
2022-11-30T19:24:00.939Z,94.25
2022-11-30T19:26:53.846Z,94.24
2022-11-30T19:29:21.759Z,94.42
2022-11-30T19:35:03.946Z,95.57
2022-11-30T19:44:50.570Z,95.51
2022-11-30T19:47:46.455Z,95.35
2022-11-30T19:54:16.235Z,95.63
2022-11-30T19:57:05.021Z,95.65
2022-11-30T20:01:08.819Z,96.13
2022-11-30T20:10:17.985Z,95.74
2022-11-30T20:13:23.944Z,96.31
2022-11-30T20:19:31.156Z,95.30
2022-11-30T20:23:14.535Z,95.74
2022-11-30T20:36:30.750Z,95.46
2022-11-30T20:43:00.708Z,93.33
2022-11-30T20:45:37.658Z,93.30
2022-11-30T20:48:53.187Z,92.96
2022-11-30T20:51:54.211Z,93.65
2022-11-30T20:54:39.103Z,94.00
2022-11-30T21:05:14.153Z,93.70
2022-11-30T21:15:17.325Z,94.33
2022-11-30T21:20:55.877Z,94.75
2022-11-30T21:23:27.660Z,94.97
2022-11-30T21:26:08.353Z,94.80
2022-11-30T21:28:38.197Z,94.02
2022-11-30T21:31:09.091Z,94.33
2022-11-30T21:33:39.714Z,94.56
2022-11-30T21:36:11.419Z,94.72
2022-11-30T21:38:42.627Z,94.68
2022-11-30T21:41:12.301Z,94.12
2022-11-30T21:43:43.097Z,94.40
2022-11-30T21:46:13.435Z,94.80
2022-11-30T21:48:46.521Z,94.55
2022-11-30T21:51:16.274Z,94.63
2022-11-30T21:53:45.258Z,94.89
2022-11-30T21:56:18.790Z,95.17
2022-11-30T21:58:47.849Z,94.96
2022-11-30T22:01:17.697Z,95.78
2022-11-30T22:03:46.976Z,95.26
2022-11-30T22:06:16.096Z,95.93
2022-11-30T22:09:08.250Z,95.71
2022-11-30T22:11:34.182Z,95.40
2022-11-30T22:14:04.343Z,95.23
2022-11-30T22:16:35.871Z,95.60
2022-11-30T22:19:07.339Z,95.20
2022-11-30T22:21:48.283Z,95.19
2022-11-30T22:24:20.211Z,95.47
2022-11-30T22:26:49.126Z,95.53
2022-11-30T22:29:22.482Z,95.11
2022-11-30T22:31:55.225Z,95.79
2022-11-30T22:34:26.365Z,95.69
2022-11-30T22:36:56.879Z,95.62
2022-11-30T22:39:29.880Z,95.72
2022-11-30T22:41:57.637Z,95.94
2022-11-30T22:44:35.569Z,95.32
2022-11-30T22:47:12.885Z,95.86
2022-11-30T22:49:43.233Z,95.82
2022-11-30T22:52:28.091Z,95.71
2022-11-30T22:55:03.939Z,95.61
2022-11-30T22:57:33.765Z,95.72
2022-11-30T23:00:05.694Z,95.34
2022-11-30T23:02:44.460Z,95.88
2022-11-30T23:05:21.763Z,96.34
2022-11-30T23:07:54.075Z,95.88
2022-11-30T23:10:21.639Z,95.85
2022-11-30T23:12:59.689Z,95.73
2022-11-30T23:15:27.524Z,95.69
2022-11-30T23:17:54.998Z,96.21
2022-11-30T23:20:23.863Z,96.17
2022-11-30T23:22:51.412Z,95.69
2022-11-30T23:25:18.912Z,95.56
2022-11-30T23:27:46.433Z,95.27
2022-11-30T23:30:14.168Z,95.50
2022-11-30T23:32:41.699Z,95.64
2022-11-30T23:35:10.042Z,95.81
2022-11-30T23:37:38.894Z,95.52
2022-11-30T23:40:08.011Z,96.01
2022-11-30T23:42:35.566Z,95.69
2022-11-30T23:45:03.043Z,95.62
2022-11-30T23:47:30.577Z,95.12
2022-11-30T23:49:58.067Z,94.80
2022-11-30T23:52:25.664Z,95.67
2022-11-30T23:54:54.478Z,95.13
2022-11-30T23:57:22.016Z,94.67
2022-11-30T23:59:49.959Z,95.10
